sensor_id;sensor_type;location;lat;lon;timestamp;P1;durP1;ratioP1;P2;durP2;ratioP2
48588;SDS011;34369;51.174;6.738;2022-12-24T00:01:45;32.43;;;29.00;;
48588;SDS011;34369;51.174;6.738;2022-12-24T00:04:17;31.93;;;29.00;;
48588;SDS011;34369;51.174;6.738;2022-12-24T00:06:51;32.95;;;29.27;;
48588;SDS011;34369;51.174;6.738;2022-12-24T00:09:23;33.22;;;29.73;;
48588;SDS011;34369;51.174;6.738;2022-12-24T00:11:56;32.38;;;29.00;;
48588;SDS011;34369;51.174;6.738;2022-12-24T00:14:29;33.22;;;29.60;;
48588;SDS011;34369;51.174;6.738;2022-12-24T00:17:01;33.83;;;30.07;;
48588;SDS011;34369;51.174;6.738;2022-12-24T00:19:34;31.20;;;28.33;;
48588;SDS011;34369;51.174;6.738;2022-12-24T00:22:08;33.37;;;29.90;;
48588;SDS011;34369;51.174;6.738;2022-12-24T00:24:41;33.77;;;29.60;;
48588;SDS011;34369;51.174;6.738;2022-12-24T00:27:14;31.67;;;28.70;;
48588;SDS011;34369;51.174;6.738;2022-12-24T00:29:47;32.93;;;29.40;;
48588;SDS011;34369;51.174;6.738;2022-12-24T00:32:19;34.37;;;30.53;;
48588;SDS011;34369;51.174;6.738;2022-12-24T00:34:52;35.23;;;30.43;;
48588;SDS011;34369;51.174;6.738;2022-12-24T00:37:25;33.63;;;30.40;;
48588;SDS011;34369;51.174;6.738;2022-12-24T00:39:58;33.07;;;29.97;;
48588;SDS011;34369;51.174;6.738;2022-12-24T00:42:30;34.60;;;30.27;;
48588;SDS011;34369;51.174;6.738;2022-12-24T00:45:03;34.47;;;30.80;;
48588;SDS011;34369;51.174;6.738;2022-12-24T00:47:36;34.97;;;31.47;;
48588;SDS011;34369;51.174;6.738;2022-12-24T00:50:09;36.33;;;32.57;;
48588;SDS011;34369;51.174;6.738;2022-12-24T00:52:42;33.73;;;30.40;;
48588;SDS011;34369;51.174;6.738;2022-12-24T00:55:14;34.67;;;31.47;;
48588;SDS011;34369;51.174;6.738;2022-12-24T00:57:47;34.53;;;31.00;;
48588;SDS011;34369;51.174;6.738;2022-12-24T01:00:19;37.60;;;31.60;;
48588;SDS011;34369;51.174;6.738;2022-12-24T01:02:52;33.87;;;30.63;;
48588;SDS011;34369;51.174;6.738;2022-12-24T01:05:24;35.87;;;30.90;;
48588;SDS011;34369;51.174;6.738;2022-12-24T01:07:58;32.27;;;28.93;;
48588;SDS011;34369;51.174;6.738;2022-12-24T01:10:30;35.93;;;31.10;;
48588;SDS011;34369;51.174;6.738;2022-12-24T01:13:03;34.60;;;31.00;;
48588;SDS011;34369;51.174;6.738;2022-12-24T01:15:35;34.03;;;30.40;;
48588;SDS011;34369;51.174;6.738;2022-12-24T01:18:08;35.03;;;31.23;;
48588;SDS011;34369;51.174;6.738;2022-12-24T01:20:41;33.37;;;30.07;;
48588;SDS011;34369;51.174;6.738;2022-12-24T01:23:15;32.90;;;29.30;;
48588;SDS011;34369;51.174;6.738;2022-12-24T01:25:47;33.83;;;30.30;;
48588;SDS011;34369;51.174;6.738;2022-12-24T01:28:20;33.43;;;30.23;;
48588;SDS011;34369;51.174;6.738;2022-12-24T01:30:52;33.20;;;30.07;;
48588;SDS011;34369;51.174;6.738;2022-12-24T01:33:26;37.37;;;30.43;;
48588;SDS011;34369;51.174;6.738;2022-12-24T01:36:01;34.43;;;30.87;;
48588;SDS011;34369;51.174;6.738;2022-12-24T01:38:35;35.60;;;31.67;;
48588;SDS011;34369;51.174;6.738;2022-12-24T01:41:11;35.03;;;31.30;;
48588;SDS011;34369;51.174;6.738;2022-12-24T01:44:20;35.17;;;31.30;;
48588;SDS011;34369;51.174;6.738;2022-12-24T01:46:56;34.40;;;30.70;;
48588;SDS011;34369;51.174;6.738;2022-12-24T01:49:38;33.80;;;30.40;;
48588;SDS011;34369;51.174;6.738;2022-12-24T01:52:16;34.73;;;31.13;;
48588;SDS011;34369;51.174;6.738;2022-12-24T01:57:28;35.20;;;32.03;;
48588;SDS011;34369;51.174;6.738;2022-12-24T02:00:06;34.80;;;31.03;;
48588;SDS011;34369;51.174;6.738;2022-12-24T02:02:42;38.10;;;33.63;;
48588;SDS011;34369;51.174;6.738;2022-12-24T02:05:19;36.07;;;32.43;;
48588;SDS011;34369;51.174;6.738;2022-12-24T02:07:58;35.60;;;32.23;;
48588;SDS011;34369;51.174;6.738;2022-12-24T02:10:33;34.20;;;30.93;;
48588;SDS011;34369;51.174;6.738;2022-12-24T02:13:05;36.77;;;33.37;;
48588;SDS011;34369;51.174;6.738;2022-12-24T02:15:43;35.37;;;31.97;;
48588;SDS011;34369;51.174;6.738;2022-12-24T02:18:30;33.70;;;30.30;;
48588;SDS011;34369;51.174;6.738;2022-12-24T02:21:19;33.50;;;30.20;;
48588;SDS011;34369;51.174;6.738;2022-12-24T02:27:38;36.17;;;31.90;;
48588;SDS011;34369;51.174;6.738;2022-12-24T02:30:27;34.20;;;30.97;;
48588;SDS011;34369;51.174;6.738;2022-12-24T02:33:06;34.00;;;30.93;;
48588;SDS011;34369;51.174;6.738;2022-12-24T02:35:53;35.40;;;30.77;;
48588;SDS011;34369;51.174;6.738;2022-12-24T02:38:30;34.90;;;31.50;;
48588;SDS011;34369;51.174;6.738;2022-12-24T02:41:11;35.10;;;31.27;;
48588;SDS011;34369;51.174;6.738;2022-12-24T02:43:48;34.63;;;31.27;;
48588;SDS011;34369;51.174;6.738;2022-12-24T02:46:24;34.93;;;31.47;;
48588;SDS011;34369;51.174;6.738;2022-12-24T02:49:00;34.07;;;30.80;;
48588;SDS011;34369;51.174;6.738;2022-12-24T02:51:33;34.07;;;30.60;;
48588;SDS011;34369;51.174;6.738;2022-12-24T02:54:05;33.43;;;30.20;;
48588;SDS011;34369;51.174;6.738;2022-12-24T02:56:50;36.23;;;32.53;;
48588;SDS011;34369;51.174;6.738;2022-12-24T02:59:43;33.15;;;30.13;;
48588;SDS011;34369;51.174;6.738;2022-12-24T03:02:34;33.93;;;30.53;;
48588;SDS011;34369;51.174;6.738;2022-12-24T03:05:23;34.70;;;31.17;;
48588;SDS011;34369;51.174;6.738;2022-12-24T03:08:01;34.23;;;30.57;;
48588;SDS011;34369;51.174;6.738;2022-12-24T03:10:45;33.63;;;30.50;;
48588;SDS011;34369;51.174;6.738;2022-12-24T03:13:24;33.73;;;30.53;;
48588;SDS011;34369;51.174;6.738;2022-12-24T03:15:58;35.57;;;31.87;;
48588;SDS011;34369;51.174;6.738;2022-12-24T03:18:36;35.28;;;31.58;;
48588;SDS011;34369;51.174;6.738;2022-12-24T03:21:12;34.17;;;30.27;;
48588;SDS011;34369;51.174;6.738;2022-12-24T03:23:52;35.10;;;31.80;;
48588;SDS011;34369;51.174;6.738;2022-12-24T03:26:25;33.90;;;30.53;;
48588;SDS011;34369;51.174;6.738;2022-12-24T03:28:59;34.97;;;31.57;;
48588;SDS011;34369;51.174;6.738;2022-12-24T03:31:40;33.72;;;30.50;;
48588;SDS011;34369;51.174;6.738;2022-12-24T03:34:15;31.90;;;28.83;;
48588;SDS011;34369;51.174;6.738;2022-12-24T03:36:48;34.73;;;30.20;;
48588;SDS011;34369;51.174;6.738;2022-12-24T03:39:21;33.77;;;30.60;;
48588;SDS011;34369;51.174;6.738;2022-12-24T03:41:54;32.07;;;29.43;;
48588;SDS011;34369;51.174;6.738;2022-12-24T03:44:26;32.87;;;29.77;;
48588;SDS011;34369;51.174;6.738;2022-12-24T03:46:58;31.87;;;29.20;;
48588;SDS011;34369;51.174;6.738;2022-12-24T03:49:32;32.70;;;29.80;;
48588;SDS011;34369;51.174;6.738;2022-12-24T03:52:04;35.97;;;32.87;;
48588;SDS011;34369;51.174;6.738;2022-12-24T03:54:37;31.70;;;28.90;;
48588;SDS011;34369;51.174;6.738;2022-12-24T03:57:09;32.90;;;30.00;;
48588;SDS011;34369;51.174;6.738;2022-12-24T03:59:42;31.93;;;29.20;;
48588;SDS011;34369;51.174;6.738;2022-12-24T04:02:14;32.43;;;29.70;;
48588;SDS011;34369;51.174;6.738;2022-12-24T04:04:48;31.53;;;28.87;;
48588;SDS011;34369;51.174;6.738;2022-12-24T04:07:20;32.30;;;29.47;;
48588;SDS011;34369;51.174;6.738;2022-12-24T04:09:53;31.13;;;28.50;;
48588;SDS011;34369;51.174;6.738;2022-12-24T04:12:25;31.47;;;28.77;;
48588;SDS011;34369;51.174;6.738;2022-12-24T04:14:57;31.40;;;29.00;;
48588;SDS011;34369;51.174;6.738;2022-12-24T04:17:29;31.53;;;28.57;;
48588;SDS011;34369;51.174;6.738;2022-12-24T04:20:02;31.47;;;29.00;;
48588;SDS011;34369;51.174;6.738;2022-12-24T04:22:36;32.40;;;29.57;;
48588;SDS011;34369;51.174;6.738;2022-12-24T04:25:09;31.27;;;28.60;;
48588;SDS011;34369;51.174;6.738;2022-12-24T04:27:41;31.33;;;28.83;;
48588;SDS011;34369;51.174;6.738;2022-12-24T04:30:13;32.53;;;29.50;;
48588;SDS011;34369;51.174;6.738;2022-12-24T04:32:45;32.20;;;29.30;;
48588;SDS011;34369;51.174;6.738;2022-12-24T04:35:18;31.97;;;29.40;;
48588;SDS011;34369;51.174;6.738;2022-12-24T04:37:50;31.97;;;29.27;;
48588;SDS011;34369;51.174;6.738;2022-12-24T04:40:23;32.13;;;29.33;;
48588;SDS011;34369;51.174;6.738;2022-12-24T04:42:55;31.37;;;28.77;;
48588;SDS011;34369;51.174;6.738;2022-12-24T04:45:27;31.87;;;29.47;;
48588;SDS011;34369;51.174;6.738;2022-12-24T04:47:59;29.53;;;27.20;;
48588;SDS011;34369;51.174;6.738;2022-12-24T04:50:32;30.50;;;28.13;;
48588;SDS011;34369;51.174;6.738;2022-12-24T04:53:04;31.30;;;28.90;;
48588;SDS011;34369;51.174;6.738;2022-12-24T04:55:42;30.47;;;28.03;;
48588;SDS011;34369;51.174;6.738;2022-12-24T04:58:25;31.03;;;28.73;;
48588;SDS011;34369;51.174;6.738;2022-12-24T05:01:01;31.90;;;29.30;;
48588;SDS011;34369;51.174;6.738;2022-12-24T05:03:35;31.37;;;28.57;;
48588;SDS011;34369;51.174;6.738;2022-12-24T05:06:10;30.87;;;28.57;;
48588;SDS011;34369;51.174;6.738;2022-12-24T05:11:16;30.53;;;28.10;;
48588;SDS011;34369;51.174;6.738;2022-12-24T05:13:48;31.60;;;29.00;;
48588;SDS011;34369;51.174;6.738;2022-12-24T05:16:20;33.17;;;30.37;;
48588;SDS011;34369;51.174;6.738;2022-12-24T05:18:53;31.47;;;29.03;;
48588;SDS011;34369;51.174;6.738;2022-12-24T05:21:27;33.37;;;30.27;;
48588;SDS011;34369;51.174;6.738;2022-12-24T05:24:00;32.73;;;29.40;;
48588;SDS011;34369;51.174;6.738;2022-12-24T05:26:50;32.93;;;29.73;;
48588;SDS011;34369;51.174;6.738;2022-12-24T05:29:25;31.88;;;29.02;;
48588;SDS011;34369;51.174;6.738;2022-12-24T05:31:57;32.47;;;29.43;;
48588;SDS011;34369;51.174;6.738;2022-12-24T05:34:29;31.23;;;28.53;;
48588;SDS011;34369;51.174;6.738;2022-12-24T05:37:03;31.57;;;28.90;;
48588;SDS011;34369;51.174;6.738;2022-12-24T05:39:35;31.17;;;28.87;;
48588;SDS011;34369;51.174;6.738;2022-12-24T05:42:07;31.77;;;28.87;;
48588;SDS011;34369;51.174;6.738;2022-12-24T05:44:39;32.43;;;29.70;;
48588;SDS011;34369;51.174;6.738;2022-12-24T05:47:11;32.13;;;29.37;;
48588;SDS011;34369;51.174;6.738;2022-12-24T05:49:43;31.70;;;28.80;;
48588;SDS011;34369;51.174;6.738;2022-12-24T05:52:17;31.80;;;29.37;;
48588;SDS011;34369;51.174;6.738;2022-12-24T05:54:48;32.17;;;29.40;;
48588;SDS011;34369;51.174;6.738;2022-12-24T05:57:20;31.67;;;28.83;;
48588;SDS011;34369;51.174;6.738;2022-12-24T05:59:52;32.27;;;29.70;;
48588;SDS011;34369;51.174;6.738;2022-12-24T06:02:25;30.83;;;28.30;;
48588;SDS011;34369;51.174;6.738;2022-12-24T06:04:57;32.80;;;29.70;;
48588;SDS011;34369;51.174;6.738;2022-12-24T06:07:30;31.53;;;28.67;;
48588;SDS011;34369;51.174;6.738;2022-12-24T06:10:03;31.40;;;28.73;;
48588;SDS011;34369;51.174;6.738;2022-12-24T06:12:36;32.47;;;29.37;;
48588;SDS011;34369;51.174;6.738;2022-12-24T06:15:09;33.37;;;30.17;;
48588;SDS011;34369;51.174;6.738;2022-12-24T06:17:41;31.10;;;28.47;;
48588;SDS011;34369;51.174;6.738;2022-12-24T06:20:13;32.93;;;29.73;;
48588;SDS011;34369;51.174;6.738;2022-12-24T06:22:47;32.53;;;29.83;;
48588;SDS011;34369;51.174;6.738;2022-12-24T06:25:19;32.20;;;29.27;;
48588;SDS011;34369;51.174;6.738;2022-12-24T06:27:51;33.27;;;30.27;;
48588;SDS011;34369;51.174;6.738;2022-12-24T06:30:23;32.23;;;29.20;;
48588;SDS011;34369;51.174;6.738;2022-12-24T06:32:55;33.93;;;30.27;;
48588;SDS011;34369;51.174;6.738;2022-12-24T06:35:30;32.73;;;29.90;;
48588;SDS011;34369;51.174;6.738;2022-12-24T06:38:04;32.93;;;29.80;;
48588;SDS011;34369;51.174;6.738;2022-12-24T06:40:36;33.00;;;29.77;;
48588;SDS011;34369;51.174;6.738;2022-12-24T06:43:09;31.90;;;29.17;;
48588;SDS011;34369;51.174;6.738;2022-12-24T06:45:43;32.43;;;29.37;;
48588;SDS011;34369;51.174;6.738;2022-12-24T06:48:17;34.20;;;30.90;;
48588;SDS011;34369;51.174;6.738;2022-12-24T06:50:49;32.97;;;29.70;;
48588;SDS011;34369;51.174;6.738;2022-12-24T06:53:23;34.37;;;30.77;;
48588;SDS011;34369;51.174;6.738;2022-12-24T06:55:59;32.10;;;29.07;;
48588;SDS011;34369;51.174;6.738;2022-12-24T06:58:33;33.73;;;30.50;;
48588;SDS011;34369;51.174;6.738;2022-12-24T07:01:07;33.70;;;30.13;;
48588;SDS011;34369;51.174;6.738;2022-12-24T07:03:41;33.50;;;30.13;;
48588;SDS011;34369;51.174;6.738;2022-12-24T07:06:14;34.27;;;30.63;;
48588;SDS011;34369;51.174;6.738;2022-12-24T07:08:51;32.65;;;29.60;;
48588;SDS011;34369;51.174;6.738;2022-12-24T07:11:24;32.97;;;29.57;;
48588;SDS011;34369;51.174;6.738;2022-12-24T07:13:57;34.53;;;29.70;;
48588;SDS011;34369;51.174;6.738;2022-12-24T07:16:30;32.60;;;29.50;;
48588;SDS011;34369;51.174;6.738;2022-12-24T07:19:03;33.53;;;30.13;;
48588;SDS011;34369;51.174;6.738;2022-12-24T07:21:36;33.27;;;30.13;;
48588;SDS011;34369;51.174;6.738;2022-12-24T07:24:11;33.17;;;29.97;;
48588;SDS011;34369;51.174;6.738;2022-12-24T07:26:43;33.00;;;29.43;;
48588;SDS011;34369;51.174;6.738;2022-12-24T07:29:20;33.15;;;29.60;;
48588;SDS011;34369;51.174;6.738;2022-12-24T07:31:52;32.53;;;29.27;;
48588;SDS011;34369;51.174;6.738;2022-12-24T07:34:25;32.33;;;29.23;;
48588;SDS011;34369;51.174;6.738;2022-12-24T07:36:58;32.97;;;29.77;;
48588;SDS011;34369;51.174;6.738;2022-12-24T07:39:32;32.53;;;29.63;;
48588;SDS011;34369;51.174;6.738;2022-12-24T07:42:06;34.30;;;30.55;;
48588;SDS011;34369;51.174;6.738;2022-12-24T07:44:39;33.67;;;30.23;;
48588;SDS011;34369;51.174;6.738;2022-12-24T07:47:12;33.70;;;30.17;;
48588;SDS011;34369;51.174;6.738;2022-12-24T07:49:44;34.30;;;30.90;;
48588;SDS011;34369;51.174;6.738;2022-12-24T07:52:18;34.03;;;30.93;;
48588;SDS011;34369;51.174;6.738;2022-12-24T07:54:52;34.30;;;31.00;;
48588;SDS011;34369;51.174;6.738;2022-12-24T07:57:25;33.07;;;30.03;;
48588;SDS011;34369;51.174;6.738;2022-12-24T07:59:57;34.03;;;30.50;;
48588;SDS011;34369;51.174;6.738;2022-12-24T08:02:33;34.78;;;31.30;;
48588;SDS011;34369;51.174;6.738;2022-12-24T08:05:06;33.80;;;30.07;;
48588;SDS011;34369;51.174;6.738;2022-12-24T08:07:39;34.53;;;30.83;;
48588;SDS011;34369;51.174;6.738;2022-12-24T08:10:13;35.27;;;31.47;;
48588;SDS011;34369;51.174;6.738;2022-12-24T08:12:46;33.43;;;29.87;;
48588;SDS011;34369;51.174;6.738;2022-12-24T08:15:19;37.05;;;29.60;;
48588;SDS011;34369;51.174;6.738;2022-12-24T08:17:51;32.77;;;29.63;;
48588;SDS011;34369;51.174;6.738;2022-12-24T08:20:24;34.83;;;31.53;;
48588;SDS011;34369;51.174;6.738;2022-12-24T08:22:59;34.07;;;30.63;;
48588;SDS011;34369;51.174;6.738;2022-12-24T08:25:33;34.07;;;30.60;;
48588;SDS011;34369;51.174;6.738;2022-12-24T08:28:09;33.27;;;30.10;;
48588;SDS011;34369;51.174;6.738;2022-12-24T08:30:42;34.33;;;30.75;;
48588;SDS011;34369;51.174;6.738;2022-12-24T08:33:19;32.60;;;29.38;;
48588;SDS011;34369;51.174;6.738;2022-12-24T08:35:53;36.17;;;30.63;;
48588;SDS011;34369;51.174;6.738;2022-12-24T08:38:26;32.90;;;29.70;;
48588;SDS011;34369;51.174;6.738;2022-12-24T08:41:01;34.87;;;31.00;;
48588;SDS011;34369;51.174;6.738;2022-12-24T08:43:33;34.13;;;30.73;;
48588;SDS011;34369;51.174;6.738;2022-12-24T08:46:06;33.30;;;30.10;;
48588;SDS011;34369;51.174;6.738;2022-12-24T08:48:40;35.47;;;31.80;;
48588;SDS011;34369;51.174;6.738;2022-12-24T08:51:13;33.43;;;30.33;;
48588;SDS011;34369;51.174;6.738;2022-12-24T08:53:48;33.80;;;30.37;;
48588;SDS011;34369;51.174;6.738;2022-12-24T08:56:25;33.53;;;30.20;;
48588;SDS011;34369;51.174;6.738;2022-12-24T08:58:58;39.67;;;30.87;;
48588;SDS011;34369;51.174;6.738;2022-12-24T09:01:33;33.57;;;30.10;;
48588;SDS011;34369;51.174;6.738;2022-12-24T09:04:08;32.93;;;29.40;;
48588;SDS011;34369;51.174;6.738;2022-12-24T09:06:41;33.20;;;29.97;;
48588;SDS011;34369;51.174;6.738;2022-12-24T09:09:14;36.10;;;31.97;;
48588;SDS011;34369;51.174;6.738;2022-12-24T09:11:49;34.47;;;29.23;;
48588;SDS011;34369;51.174;6.738;2022-12-24T09:14:22;34.25;;;30.25;;
48588;SDS011;34369;51.174;6.738;2022-12-24T09:16:54;33.07;;;29.83;;
48588;SDS011;34369;51.174;6.738;2022-12-24T09:19:27;33.60;;;30.37;;
48588;SDS011;34369;51.174;6.738;2022-12-24T09:21:59;32.57;;;29.23;;
48588;SDS011;34369;51.174;6.738;2022-12-24T09:24:32;32.93;;;29.40;;
48588;SDS011;34369;51.174;6.738;2022-12-24T09:27:07;34.90;;;29.80;;
48588;SDS011;34369;51.174;6.738;2022-12-24T09:29:40;32.40;;;29.13;;
48588;SDS011;34369;51.174;6.738;2022-12-24T09:32:12;34.40;;;30.93;;
48588;SDS011;34369;51.174;6.738;2022-12-24T09:34:45;36.30;;;31.43;;
48588;SDS011;34369;51.174;6.738;2022-12-24T09:37:18;32.73;;;29.33;;
48588;SDS011;34369;51.174;6.738;2022-12-24T09:39:50;33.87;;;30.03;;
48588;SDS011;34369;51.174;6.738;2022-12-24T09:42:27;33.83;;;30.40;;
48588;SDS011;34369;51.174;6.738;2022-12-24T09:45:19;33.20;;;29.83;;
48588;SDS011;34369;51.174;6.738;2022-12-24T09:48:02;38.23;;;30.93;;
48588;SDS011;34369;51.174;6.738;2022-12-24T09:50:45;33.27;;;29.80;;
48588;SDS011;34369;51.174;6.738;2022-12-24T09:53:36;33.70;;;30.23;;
48588;SDS011;34369;51.174;6.738;2022-12-24T09:56:15;33.10;;;29.80;;
48588;SDS011;34369;51.174;6.738;2022-12-24T09:58:53;35.07;;;31.23;;
48588;SDS011;34369;51.174;6.738;2022-12-24T10:01:30;32.87;;;29.77;;
48588;SDS011;34369;51.174;6.738;2022-12-24T10:04:07;34.00;;;30.40;;
48588;SDS011;34369;51.174;6.738;2022-12-24T10:06:46;32.43;;;28.93;;
48588;SDS011;34369;51.174;6.738;2022-12-24T10:09:31;33.40;;;29.73;;
48588;SDS011;34369;51.174;6.738;2022-12-24T10:12:15;33.85;;;28.70;;
48588;SDS011;34369;51.174;6.738;2022-12-24T10:14:57;36.17;;;30.20;;
48588;SDS011;34369;51.174;6.738;2022-12-24T10:17:48;32.07;;;28.97;;
48588;SDS011;34369;51.174;6.738;2022-12-24T10:20:38;34.28;;;30.58;;
48588;SDS011;34369;51.174;6.738;2022-12-24T10:23:20;33.10;;;29.53;;
48588;SDS011;34369;51.174;6.738;2022-12-24T10:26:04;33.45;;;30.02;;
48588;SDS011;34369;51.174;6.738;2022-12-24T10:28:44;33.58;;;30.02;;
48588;SDS011;34369;51.174;6.738;2022-12-24T10:31:24;34.77;;;28.93;;
48588;SDS011;34369;51.174;6.738;2022-12-24T10:34:00;32.85;;;29.27;;
48588;SDS011;34369;51.174;6.738;2022-12-24T10:36:35;32.70;;;29.42;;
48588;SDS011;34369;51.174;6.738;2022-12-24T10:39:08;34.08;;;28.83;;
48588;SDS011;34369;51.174;6.738;2022-12-24T10:41:50;32.35;;;28.92;;
48588;SDS011;34369;51.174;6.738;2022-12-24T10:44:27;33.70;;;29.77;;
48588;SDS011;34369;51.174;6.738;2022-12-24T10:47:03;34.53;;;31.20;;
48588;SDS011;34369;51.174;6.738;2022-12-24T10:49:39;36.83;;;29.20;;
48588;SDS011;34369;51.174;6.738;2022-12-24T10:52:18;33.13;;;29.75;;
48588;SDS011;34369;51.174;6.738;2022-12-24T10:55:09;32.53;;;29.10;;
48588;SDS011;34369;51.174;6.738;2022-12-24T10:57:57;33.17;;;29.52;;
48588;SDS011;34369;51.174;6.738;2022-12-24T11:00:32;33.40;;;29.90;;
48588;SDS011;34369;51.174;6.738;2022-12-24T11:03:24;33.55;;;30.23;;
48588;SDS011;34369;51.174;6.738;2022-12-24T11:06:03;32.53;;;29.30;;
48588;SDS011;34369;51.174;6.738;2022-12-24T11:08:43;34.93;;;31.20;;
48588;SDS011;34369;51.174;6.738;2022-12-24T11:11:17;31.65;;;28.45;;
48588;SDS011;34369;51.174;6.738;2022-12-24T11:13:53;30.67;;;27.65;;
48588;SDS011;34369;51.174;6.738;2022-12-24T11:16:27;32.90;;;28.60;;
48588;SDS011;34369;51.174;6.738;2022-12-24T11:19:04;32.38;;;28.95;;
48588;SDS011;34369;51.174;6.738;2022-12-24T11:21:47;31.63;;;28.48;;
48588;SDS011;34369;51.174;6.738;2022-12-24T11:24:29;36.88;;;29.02;;
48588;SDS011;34369;51.174;6.738;2022-12-24T11:27:27;32.10;;;28.67;;
48588;SDS011;34369;51.174;6.738;2022-12-24T11:30:25;31.73;;;28.73;;
48588;SDS011;34369;51.174;6.738;2022-12-24T11:33:14;32.33;;;28.73;;
48588;SDS011;34369;51.174;6.738;2022-12-24T11:35:55;31.88;;;28.50;;
48588;SDS011;34369;51.174;6.738;2022-12-24T11:38:33;31.23;;;28.10;;
48588;SDS011;34369;51.174;6.738;2022-12-24T11:41:08;30.05;;;27.02;;
48588;SDS011;34369;51.174;6.738;2022-12-24T11:43:47;31.85;;;28.33;;
48588;SDS011;34369;51.174;6.738;2022-12-24T11:46:34;33.88;;;27.75;;
48588;SDS011;34369;51.174;6.738;2022-12-24T11:49:13;31.80;;;28.35;;
48588;SDS011;34369;51.174;6.738;2022-12-24T11:55:05;30.42;;;27.48;;
48588;SDS011;34369;51.174;6.738;2022-12-24T11:57:52;30.00;;;26.95;;
48588;SDS011;34369;51.174;6.738;2022-12-24T12:00:32;29.63;;;26.67;;
48588;SDS011;34369;51.174;6.738;2022-12-24T12:03:05;31.83;;;27.17;;
48588;SDS011;34369;51.174;6.738;2022-12-24T12:05:59;36.05;;;28.23;;
48588;SDS011;34369;51.174;6.738;2022-12-24T12:08:36;33.13;;;27.02;;
48588;SDS011;34369;51.174;6.738;2022-12-24T12:11:11;33.45;;;28.05;;
48588;SDS011;34369;51.174;6.738;2022-12-24T12:13:45;30.25;;;27.10;;
48588;SDS011;34369;51.174;6.738;2022-12-24T12:16:20;30.42;;;27.17;;
48588;SDS011;34369;51.174;6.738;2022-12-24T12:18:59;31.98;;;28.08;;
48588;SDS011;34369;51.174;6.738;2022-12-24T12:21:36;31.80;;;28.25;;
48588;SDS011;34369;51.174;6.738;2022-12-24T12:24:15;31.33;;;27.15;;
48588;SDS011;34369;51.174;6.738;2022-12-24T12:26:56;30.25;;;27.13;;
48588;SDS011;34369;51.174;6.738;2022-12-24T12:29:38;31.23;;;27.92;;
48588;SDS011;34369;51.174;6.738;2022-12-24T12:32:20;30.73;;;27.67;;
48588;SDS011;34369;51.174;6.738;2022-12-24T12:35:00;30.77;;;27.77;;
48588;SDS011;34369;51.174;6.738;2022-12-24T12:37:46;30.42;;;27.17;;
48588;SDS011;34369;51.174;6.738;2022-12-24T12:40:31;30.95;;;27.75;;
48588;SDS011;34369;51.174;6.738;2022-12-24T12:43:23;29.50;;;26.77;;
48588;SDS011;34369;51.174;6.738;2022-12-24T12:46:12;30.15;;;26.92;;
48588;SDS011;34369;51.174;6.738;2022-12-24T12:48:55;29.58;;;26.42;;
48588;SDS011;34369;51.174;6.738;2022-12-24T12:51:43;31.23;;;27.60;;
48588;SDS011;34369;51.174;6.738;2022-12-24T12:54:29;29.67;;;26.35;;
48588;SDS011;34369;51.174;6.738;2022-12-24T12:57:17;30.42;;;26.50;;
48588;SDS011;34369;51.174;6.738;2022-12-24T12:59:53;31.13;;;27.83;;
48588;SDS011;34369;51.174;6.738;2022-12-24T13:02:43;29.80;;;26.67;;
48588;SDS011;34369;51.174;6.738;2022-12-24T13:08:57;34.28;;;27.65;;
48588;SDS011;34369;51.174;6.738;2022-12-24T13:11:51;30.80;;;26.90;;
48588;SDS011;34369;51.174;6.738;2022-12-24T13:14:43;30.52;;;27.67;;
48588;SDS011;34369;51.174;6.738;2022-12-24T13:17:36;30.35;;;27.25;;
48588;SDS011;34369;51.174;6.738;2022-12-24T13:20:39;30.15;;;27.27;;
48588;SDS011;34369;51.174;6.738;2022-12-24T13:23:14;29.90;;;26.92;;
48588;SDS011;34369;51.174;6.738;2022-12-24T13:25:51;30.70;;;27.40;;
48588;SDS011;34369;51.174;6.738;2022-12-24T13:28:30;30.02;;;27.02;;
48588;SDS011;34369;51.174;6.738;2022-12-24T13:34:01;30.75;;;27.58;;
48588;SDS011;34369;51.174;6.738;2022-12-24T13:42:47;30.33;;;27.83;;
48588;SDS011;34369;51.174;6.738;2022-12-24T13:45:42;31.52;;;28.55;;
48588;SDS011;34369;51.174;6.738;2022-12-24T13:48:30;32.25;;;29.05;;
48588;SDS011;34369;51.174;6.738;2022-12-24T13:51:17;30.45;;;27.40;;
48588;SDS011;34369;51.174;6.738;2022-12-24T13:53:56;30.55;;;27.55;;
48588;SDS011;34369;51.174;6.738;2022-12-24T13:56:30;31.05;;;28.15;;
48588;SDS011;34369;51.174;6.738;2022-12-24T13:59:10;31.97;;;28.97;;
48588;SDS011;34369;51.174;6.738;2022-12-24T14:01:56;31.30;;;28.27;;
48588;SDS011;34369;51.174;6.738;2022-12-24T14:04:32;35.60;;;28.83;;
48588;SDS011;34369;51.174;6.738;2022-12-24T14:07:11;32.10;;;28.38;;
48588;SDS011;34369;51.174;6.738;2022-12-24T14:09:50;30.05;;;27.45;;
48588;SDS011;34369;51.174;6.738;2022-12-24T14:12:31;31.27;;;28.17;;
48588;SDS011;34369;51.174;6.738;2022-12-24T14:18:33;31.23;;;28.60;;
48588;SDS011;34369;51.174;6.738;2022-12-24T14:21:15;31.37;;;28.13;;
48588;SDS011;34369;51.174;6.738;2022-12-24T14:23:53;34.97;;;29.27;;
48588;SDS011;34369;51.174;6.738;2022-12-24T14:26:29;32.92;;;29.85;;
48588;SDS011;34369;51.174;6.738;2022-12-24T14:29:04;32.65;;;29.65;;
48588;SDS011;34369;51.174;6.738;2022-12-24T14:31:49;31.90;;;28.80;;
48588;SDS011;34369;51.174;6.738;2022-12-24T14:34:22;30.73;;;27.67;;
48588;SDS011;34369;51.174;6.738;2022-12-24T14:37:00;30.85;;;27.83;;
48588;SDS011;34369;51.174;6.738;2022-12-24T14:39:35;31.45;;;28.63;;
48588;SDS011;34369;51.174;6.738;2022-12-24T14:42:20;31.00;;;28.00;;
48588;SDS011;34369;51.174;6.738;2022-12-24T14:45:07;32.40;;;28.90;;
48588;SDS011;34369;51.174;6.738;2022-12-24T14:47:53;32.00;;;28.95;;
48588;SDS011;34369;51.174;6.738;2022-12-24T14:50:43;32.37;;;28.90;;
48588;SDS011;34369;51.174;6.738;2022-12-24T14:53:33;32.57;;;29.40;;
48588;SDS011;34369;51.174;6.738;2022-12-24T14:56:21;31.27;;;28.63;;
48588;SDS011;34369;51.174;6.738;2022-12-24T14:58:54;30.70;;;27.80;;
48588;SDS011;34369;51.174;6.738;2022-12-24T15:01:33;31.42;;;28.73;;
48588;SDS011;34369;51.174;6.738;2022-12-24T15:04:13;39.90;;;29.90;;
48588;SDS011;34369;51.174;6.738;2022-12-24T15:06:49;31.27;;;28.60;;
48588;SDS011;34369;51.174;6.738;2022-12-24T15:09:27;32.73;;;29.43;;
48588;SDS011;34369;51.174;6.738;2022-12-24T15:12:03;31.33;;;28.53;;
48588;SDS011;34369;51.174;6.738;2022-12-24T15:14:38;31.97;;;28.63;;
48588;SDS011;34369;51.174;6.738;2022-12-24T15:17:13;31.33;;;28.23;;
48588;SDS011;34369;51.174;6.738;2022-12-24T15:19:47;30.90;;;28.00;;
48588;SDS011;34369;51.174;6.738;2022-12-24T15:22:22;31.97;;;28.73;;
48588;SDS011;34369;51.174;6.738;2022-12-24T15:25:00;31.40;;;28.33;;
48588;SDS011;34369;51.174;6.738;2022-12-24T15:27:32;32.47;;;28.77;;
48588;SDS011;34369;51.174;6.738;2022-12-24T15:30:11;34.50;;;29.70;;
48588;SDS011;34369;51.174;6.738;2022-12-24T15:32:48;33.40;;;29.73;;
48588;SDS011;34369;51.174;6.738;2022-12-24T15:35:28;33.43;;;29.97;;
48588;SDS011;34369;51.174;6.738;2022-12-24T15:38:03;32.60;;;29.53;;
48588;SDS011;34369;51.174;6.738;2022-12-24T15:40:38;33.60;;;30.23;;
48588;SDS011;34369;51.174;6.738;2022-12-24T15:43:11;33.80;;;30.70;;
48588;SDS011;34369;51.174;6.738;2022-12-24T15:45:43;33.80;;;30.47;;